sensor_id;sensor_type;location;lat;lon;timestamp;P1;durP1;ratioP1;P2;durP2;ratioP2
11998;SDS011;40817;51.520;9.954;2022-07-25T00:02:10;7.53;;;5.25;;
11998;SDS011;40817;51.520;9.954;2022-07-25T00:04:38;6.22;;;4.93;;
11998;SDS011;40817;51.520;9.954;2022-07-25T00:07:06;6.90;;;5.25;;
11998;SDS011;40817;51.520;9.954;2022-07-25T00:09:33;10.95;;;6.10;;
11998;SDS011;40817;51.520;9.954;2022-07-25T00:12:01;9.25;;;5.90;;
11998;SDS011;40817;51.520;9.954;2022-07-25T00:14:30;9.38;;;5.40;;
11998;SDS011;40817;51.520;9.954;2022-07-25T00:16:59;7.85;;;5.82;;
11998;SDS011;40817;51.520;9.954;2022-07-25T00:19:26;7.60;;;5.57;;
11998;SDS011;40817;51.520;9.954;2022-07-25T00:21:54;7.72;;;5.82;;
11998;SDS011;40817;51.520;9.954;2022-07-25T00:24:23;8.75;;;6.10;;
11998;SDS011;40817;51.520;9.954;2022-07-25T00:26:50;8.02;;;6.20;;
11998;SDS011;40817;51.520;9.954;2022-07-25T00:29:18;10.50;;;5.95;;
11998;SDS011;40817;51.520;9.954;2022-07-25T00:31:46;9.20;;;6.13;;
11998;SDS011;40817;51.520;9.954;2022-07-25T00:34:15;9.88;;;6.00;;
11998;SDS011;40817;51.520;9.954;2022-07-25T00:36:42;9.45;;;5.80;;
11998;SDS011;40817;51.520;9.954;2022-07-25T00:39:10;7.60;;;6.00;;
11998;SDS011;40817;51.520;9.954;2022-07-25T00:41:38;9.02;;;5.50;;
11998;SDS011;40817;51.520;9.954;2022-07-25T00:44:06;9.73;;;6.38;;
11998;SDS011;40817;51.520;9.954;2022-07-25T00:46:36;9.25;;;6.25;;
11998;SDS011;40817;51.520;9.954;2022-07-25T00:49:04;9.60;;;6.03;;
11998;SDS011;40817;51.520;9.954;2022-07-25T00:51:33;9.45;;;5.63;;
11998;SDS011;40817;51.520;9.954;2022-07-25T00:54:01;7.07;;;5.35;;
11998;SDS011;40817;51.520;9.954;2022-07-25T00:56:29;7.63;;;5.70;;
11998;SDS011;40817;51.520;9.954;2022-07-25T00:58:58;6.85;;;5.50;;
11998;SDS011;40817;51.520;9.954;2022-07-25T01:01:29;8.32;;;6.15;;
11998;SDS011;40817;51.520;9.954;2022-07-25T01:03:57;9.32;;;5.72;;
11998;SDS011;40817;51.520;9.954;2022-07-25T01:06:25;6.97;;;5.68;;
11998;SDS011;40817;51.520;9.954;2022-07-25T01:09:07;8.57;;;6.20;;
11998;SDS011;40817;51.520;9.954;2022-07-25T01:11:35;7.63;;;6.15;;
11998;SDS011;40817;51.520;9.954;2022-07-25T01:14:03;7.53;;;6.13;;
11998;SDS011;40817;51.520;9.954;2022-07-25T01:16:32;8.45;;;6.05;;
11998;SDS011;40817;51.520;9.954;2022-07-25T01:18:59;8.30;;;6.30;;
11998;SDS011;40817;51.520;9.954;2022-07-25T01:21:28;8.38;;;6.38;;
11998;SDS011;40817;51.520;9.954;2022-07-25T01:23:56;8.00;;;6.43;;
11998;SDS011;40817;51.520;9.954;2022-07-25T01:26:24;11.80;;;6.55;;
11998;SDS011;40817;51.520;9.954;2022-07-25T01:28:52;7.57;;;5.47;;
11998;SDS011;40817;51.520;9.954;2022-07-25T01:31:21;10.45;;;5.90;;
11998;SDS011;40817;51.520;9.954;2022-07-25T01:33:49;7.15;;;5.93;;
11998;SDS011;40817;51.520;9.954;2022-07-25T01:36:16;9.95;;;6.78;;
11998;SDS011;40817;51.520;9.954;2022-07-25T01:38:46;15.30;;;6.57;;
11998;SDS011;40817;51.520;9.954;2022-07-25T01:41:13;9.98;;;6.20;;
11998;SDS011;40817;51.520;9.954;2022-07-25T01:43:41;11.82;;;6.05;;
11998;SDS011;40817;51.520;9.954;2022-07-25T01:46:08;11.15;;;6.30;;
11998;SDS011;40817;51.520;9.954;2022-07-25T01:48:36;9.30;;;6.50;;
11998;SDS011;40817;51.520;9.954;2022-07-25T01:51:05;7.82;;;5.80;;
11998;SDS011;40817;51.520;9.954;2022-07-25T01:53:35;9.93;;;6.70;;
11998;SDS011;40817;51.520;9.954;2022-07-25T01:56:04;10.38;;;6.80;;
11998;SDS011;40817;51.520;9.954;2022-07-25T01:58:33;11.63;;;6.45;;
11998;SDS011;40817;51.520;9.954;2022-07-25T02:01:01;8.30;;;5.45;;
11998;SDS011;40817;51.520;9.954;2022-07-25T02:03:29;8.88;;;5.95;;
11998;SDS011;40817;51.520;9.954;2022-07-25T02:05:57;13.13;;;6.55;;
11998;SDS011;40817;51.520;9.954;2022-07-25T02:08:27;7.10;;;6.18;;
11998;SDS011;40817;51.520;9.954;2022-07-25T02:10:55;7.88;;;5.55;;
11998;SDS011;40817;51.520;9.954;2022-07-25T02:13:25;8.35;;;5.68;;
11998;SDS011;40817;51.520;9.954;2022-07-25T02:15:53;8.80;;;5.60;;
11998;SDS011;40817;51.520;9.954;2022-07-25T02:18:21;8.95;;;6.40;;
11998;SDS011;40817;51.520;9.954;2022-07-25T02:20:48;8.02;;;6.13;;
11998;SDS011;40817;51.520;9.954;2022-07-25T02:23:16;12.05;;;6.22;;
11998;SDS011;40817;51.520;9.954;2022-07-25T02:25:44;7.47;;;6.35;;
11998;SDS011;40817;51.520;9.954;2022-07-25T02:28:12;9.77;;;6.22;;
11998;SDS011;40817;51.520;9.954;2022-07-25T02:30:40;9.25;;;5.97;;
11998;SDS011;40817;51.520;9.954;2022-07-25T02:33:08;12.95;;;7.03;;
11998;SDS011;40817;51.520;9.954;2022-07-25T02:35:36;10.70;;;6.35;;
11998;SDS011;40817;51.520;9.954;2022-07-25T02:38:03;7.55;;;6.03;;
11998;SDS011;40817;51.520;9.954;2022-07-25T02:40:31;7.70;;;6.38;;
11998;SDS011;40817;51.520;9.954;2022-07-25T02:42:59;8.68;;;6.20;;
11998;SDS011;40817;51.520;9.954;2022-07-25T02:45:26;7.07;;;5.90;;
11998;SDS011;40817;51.520;9.954;2022-07-25T02:47:55;8.32;;;5.88;;
11998;SDS011;40817;51.520;9.954;2022-07-25T02:50:23;7.93;;;5.80;;
11998;SDS011;40817;51.520;9.954;2022-07-25T02:52:51;7.72;;;5.72;;
11998;SDS011;40817;51.520;9.954;2022-07-25T02:55:18;8.70;;;5.90;;
11998;SDS011;40817;51.520;9.954;2022-07-25T02:57:46;9.20;;;5.78;;
11998;SDS011;40817;51.520;9.954;2022-07-25T03:00:15;9.18;;;5.28;;
11998;SDS011;40817;51.520;9.954;2022-07-25T03:02:44;11.45;;;5.90;;
11998;SDS011;40817;51.520;9.954;2022-07-25T03:05:14;8.30;;;5.90;;
11998;SDS011;40817;51.520;9.954;2022-07-25T03:07:43;7.75;;;6.50;;
11998;SDS011;40817;51.520;9.954;2022-07-25T03:10:12;7.15;;;6.30;;
11998;SDS011;40817;51.520;9.954;2022-07-25T03:12:41;8.30;;;6.15;;
11998;SDS011;40817;51.520;9.954;2022-07-25T03:15:10;6.85;;;5.65;;
11998;SDS011;40817;51.520;9.954;2022-07-25T03:17:39;8.98;;;6.30;;
11998;SDS011;40817;51.520;9.954;2022-07-25T03:20:07;8.65;;;5.88;;
11998;SDS011;40817;51.520;9.954;2022-07-25T03:22:37;7.15;;;5.72;;
11998;SDS011;40817;51.520;9.954;2022-07-25T03:25:05;8.95;;;5.47;;
11998;SDS011;40817;51.520;9.954;2022-07-25T03:27:34;8.38;;;5.90;;
11998;SDS011;40817;51.520;9.954;2022-07-25T03:30:02;8.40;;;6.43;;
11998;SDS011;40817;51.520;9.954;2022-07-25T03:32:31;8.38;;;5.78;;
11998;SDS011;40817;51.520;9.954;2022-07-25T03:34:59;7.40;;;5.93;;
11998;SDS011;40817;51.520;9.954;2022-07-25T03:37:26;10.77;;;6.25;;
11998;SDS011;40817;51.520;9.954;2022-07-25T03:39:56;6.82;;;5.70;;
11998;SDS011;40817;51.520;9.954;2022-07-25T03:42:24;8.40;;;6.05;;
11998;SDS011;40817;51.520;9.954;2022-07-25T03:44:51;8.60;;;6.05;;
11998;SDS011;40817;51.520;9.954;2022-07-25T03:47:19;7.90;;;5.75;;
11998;SDS011;40817;51.520;9.954;2022-07-25T03:49:47;7.50;;;5.85;;
11998;SDS011;40817;51.520;9.954;2022-07-25T03:52:14;6.68;;;5.97;;
11998;SDS011;40817;51.520;9.954;2022-07-25T03:54:42;7.05;;;6.18;;
11998;SDS011;40817;51.520;9.954;2022-07-25T03:57:11;9.90;;;6.07;;
11998;SDS011;40817;51.520;9.954;2022-07-25T03:59:39;8.43;;;6.50;;
11998;SDS011;40817;51.520;9.954;2022-07-25T04:02:06;7.55;;;6.13;;
11998;SDS011;40817;51.520;9.954;2022-07-25T04:04:34;8.75;;;5.65;;
11998;SDS011;40817;51.520;9.954;2022-07-25T04:07:02;9.23;;;6.07;;
11998;SDS011;40817;51.520;9.954;2022-07-25T04:09:29;7.68;;;6.32;;
11998;SDS011;40817;51.520;9.954;2022-07-25T04:11:57;9.60;;;6.07;;
11998;SDS011;40817;51.520;9.954;2022-07-25T04:14:26;7.47;;;6.40;;
11998;SDS011;40817;51.520;9.954;2022-07-25T04:16:54;8.43;;;6.28;;
11998;SDS011;40817;51.520;9.954;2022-07-25T04:19:21;9.70;;;6.38;;
11998;SDS011;40817;51.520;9.954;2022-07-25T04:21:49;6.97;;;5.60;;
11998;SDS011;40817;51.520;9.954;2022-07-25T04:24:17;8.25;;;5.70;;
11998;SDS011;40817;51.520;9.954;2022-07-25T04:26:44;9.07;;;6.65;;
11998;SDS011;40817;51.520;9.954;2022-07-25T04:29:12;7.93;;;5.93;;
11998;SDS011;40817;51.520;9.954;2022-07-25T04:31:41;9.73;;;6.50;;
11998;SDS011;40817;51.520;9.954;2022-07-25T04:34:09;8.40;;;5.88;;
11998;SDS011;40817;51.520;9.954;2022-07-25T04:36:36;6.78;;;5.65;;
11998;SDS011;40817;51.520;9.954;2022-07-25T04:39:04;7.25;;;5.90;;
11998;SDS011;40817;51.520;9.954;2022-07-25T04:41:32;7.97;;;6.13;;
11998;SDS011;40817;51.520;9.954;2022-07-25T04:43:59;7.72;;;6.13;;
11998;SDS011;40817;51.520;9.954;2022-07-25T04:46:27;9.50;;;5.35;;
11998;SDS011;40817;51.520;9.954;2022-07-25T04:48:56;8.05;;;4.82;;
11998;SDS011;40817;51.520;9.954;2022-07-25T04:51:24;7.07;;;5.65;;
11998;SDS011;40817;51.520;9.954;2022-07-25T04:53:52;7.80;;;5.82;;
11998;SDS011;40817;51.520;9.954;2022-07-25T04:56:19;7.32;;;6.07;;
11998;SDS011;40817;51.520;9.954;2022-07-25T04:58:47;8.98;;;6.32;;
11998;SDS011;40817;51.520;9.954;2022-07-25T05:01:15;9.10;;;6.43;;
11998;SDS011;40817;51.520;9.954;2022-07-25T05:03:42;7.30;;;5.88;;
11998;SDS011;40817;51.520;9.954;2022-07-25T05:06:11;8.70;;;6.00;;
11998;SDS011;40817;51.520;9.954;2022-07-25T05:08:39;8.25;;;6.05;;
11998;SDS011;40817;51.520;9.954;2022-07-25T05:11:07;7.00;;;5.53;;
11998;SDS011;40817;51.520;9.954;2022-07-25T05:13:34;10.02;;;6.05;;
11998;SDS011;40817;51.520;9.954;2022-07-25T05:16:02;6.43;;;4.95;;
11998;SDS011;40817;51.520;9.954;2022-07-25T05:18:32;6.32;;;4.75;;
11998;SDS011;40817;51.520;9.954;2022-07-25T05:21:00;7.05;;;4.53;;
11998;SDS011;40817;51.520;9.954;2022-07-25T05:23:29;6.18;;;4.47;;
11998;SDS011;40817;51.520;9.954;2022-07-25T05:25:56;6.32;;;4.93;;
11998;SDS011;40817;51.520;9.954;2022-07-25T05:28:24;6.18;;;4.45;;
11998;SDS011;40817;51.520;9.954;2022-07-25T05:30:52;6.93;;;4.50;;
11998;SDS011;40817;51.520;9.954;2022-07-25T05:33:20;8.05;;;4.75;;
11998;SDS011;40817;51.520;9.954;2022-07-25T05:35:47;7.55;;;4.47;;
11998;SDS011;40817;51.520;9.954;2022-07-25T05:38:15;6.00;;;4.70;;
11998;SDS011;40817;51.520;9.954;2022-07-25T05:40:44;10.18;;;4.82;;
11998;SDS011;40817;51.520;9.954;2022-07-25T05:43:12;6.10;;;4.60;;
11998;SDS011;40817;51.520;9.954;2022-07-25T05:45:39;10.95;;;5.05;;
11998;SDS011;40817;51.520;9.954;2022-07-25T05:48:08;6.63;;;4.78;;
11998;SDS011;40817;51.520;9.954;2022-07-25T05:50:36;8.15;;;4.55;;
11998;SDS011;40817;51.520;9.954;2022-07-25T05:53:03;7.88;;;4.78;;
11998;SDS011;40817;51.520;9.954;2022-07-25T05:55:31;5.55;;;4.25;;
11998;SDS011;40817;51.520;9.954;2022-07-25T05:58:00;6.43;;;4.45;;
11998;SDS011;40817;51.520;9.954;2022-07-25T06:00:28;12.88;;;4.93;;
11998;SDS011;40817;51.520;9.954;2022-07-25T06:02:56;7.30;;;4.93;;
11998;SDS011;40817;51.520;9.954;2022-07-25T06:05:25;8.80;;;4.90;;
11998;SDS011;40817;51.520;9.954;2022-07-25T06:07:53;8.43;;;4.78;;
11998;SDS011;40817;51.520;9.954;2022-07-25T06:10:21;8.05;;;4.88;;
11998;SDS011;40817;51.520;9.954;2022-07-25T06:12:49;6.22;;;4.50;;
11998;SDS011;40817;51.520;9.954;2022-07-25T06:15:18;6.25;;;4.32;;
11998;SDS011;40817;51.520;9.954;2022-07-25T06:17:45;6.25;;;4.60;;
11998;SDS011;40817;51.520;9.954;2022-07-25T06:20:13;6.40;;;4.68;;
11998;SDS011;40817;51.520;9.954;2022-07-25T06:22:41;7.45;;;4.45;;
11998;SDS011;40817;51.520;9.954;2022-07-25T06:25:09;7.80;;;4.55;;
11998;SDS011;40817;51.520;9.954;2022-07-25T06:27:37;7.63;;;4.57;;
11998;SDS011;40817;51.520;9.954;2022-07-25T06:30:05;6.90;;;4.50;;
11998;SDS011;40817;51.520;9.954;2022-07-25T06:32:38;9.60;;;4.40;;
11998;SDS011;40817;51.520;9.954;2022-07-25T06:35:05;6.13;;;4.43;;
11998;SDS011;40817;51.520;9.954;2022-07-25T06:37:35;9.07;;;4.50;;
11998;SDS011;40817;51.520;9.954;2022-07-25T06:40:04;7.43;;;4.60;;
11998;SDS011;40817;51.520;9.954;2022-07-25T06:42:36;8.32;;;4.30;;
11998;SDS011;40817;51.520;9.954;2022-07-25T06:45:05;7.03;;;5.47;;
11998;SDS011;40817;51.520;9.954;2022-07-25T06:47:38;5.85;;;5.25;;
11998;SDS011;40817;51.520;9.954;2022-07-25T06:50:08;6.32;;;5.30;;
11998;SDS011;40817;51.520;9.954;2022-07-25T06:52:39;8.60;;;5.30;;
11998;SDS011;40817;51.520;9.954;2022-07-25T06:55:08;7.18;;;5.25;;
11998;SDS011;40817;51.520;9.954;2022-07-25T06:57:39;5.90;;;5.20;;
11998;SDS011;40817;51.520;9.954;2022-07-25T07:00:08;7.07;;;5.25;;
11998;SDS011;40817;51.520;9.954;2022-07-25T07:02:50;7.50;;;4.85;;
11998;SDS011;40817;51.520;9.954;2022-07-25T07:05:21;7.75;;;5.45;;
11998;SDS011;40817;51.520;9.954;2022-07-25T07:07:50;9.73;;;5.93;;
11998;SDS011;40817;51.520;9.954;2022-07-25T07:10:18;7.32;;;5.40;;
11998;SDS011;40817;51.520;9.954;2022-07-25T07:12:47;6.38;;;5.68;;
11998;SDS011;40817;51.520;9.954;2022-07-25T07:15:16;7.03;;;5.47;;
11998;SDS011;40817;51.520;9.954;2022-07-25T07:17:44;7.57;;;5.28;;
11998;SDS011;40817;51.520;9.954;2022-07-25T07:20:13;9.43;;;5.85;;
11998;SDS011;40817;51.520;9.954;2022-07-25T07:22:44;14.02;;;6.22;;
11998;SDS011;40817;51.520;9.954;2022-07-25T07:25:13;7.47;;;5.57;;
11998;SDS011;40817;51.520;9.954;2022-07-25T07:27:44;6.95;;;5.68;;
11998;SDS011;40817;51.520;9.954;2022-07-25T07:30:12;9.15;;;5.93;;
11998;SDS011;40817;51.520;9.954;2022-07-25T07:32:40;6.32;;;5.57;;
11998;SDS011;40817;51.520;9.954;2022-07-25T07:35:09;8.27;;;5.93;;
11998;SDS011;40817;51.520;9.954;2022-07-25T07:37:38;7.75;;;5.80;;
11998;SDS011;40817;51.520;9.954;2022-07-25T07:40:06;8.40;;;5.95;;
11998;SDS011;40817;51.520;9.954;2022-07-25T07:42:36;7.90;;;5.82;;
11998;SDS011;40817;51.520;9.954;2022-07-25T07:45:09;11.50;;;6.20;;
11998;SDS011;40817;51.520;9.954;2022-07-25T07:47:40;9.38;;;6.28;;
11998;SDS011;40817;51.520;9.954;2022-07-25T07:50:08;8.38;;;6.60;;
11998;SDS011;40817;51.520;9.954;2022-07-25T07:52:36;9.75;;;6.28;;
11998;SDS011;40817;51.520;9.954;2022-07-25T07:55:06;9.07;;;6.57;;
11998;SDS011;40817;51.520;9.954;2022-07-25T08:00:21;7.70;;;6.55;;
11998;SDS011;40817;51.520;9.954;2022-07-25T08:02:50;22.20;;;6.82;;
11998;SDS011;40817;51.520;9.954;2022-07-25T08:05:19;7.32;;;5.80;;
11998;SDS011;40817;51.520;9.954;2022-07-25T08:07:49;9.27;;;6.85;;
11998;SDS011;40817;51.520;9.954;2022-07-25T08:10:19;8.60;;;6.60;;
11998;SDS011;40817;51.520;9.954;2022-07-25T08:12:50;9.55;;;6.95;;
11998;SDS011;40817;51.520;9.954;2022-07-25T08:15:19;9.05;;;6.60;;
11998;SDS011;40817;51.520;9.954;2022-07-25T08:17:48;7.18;;;6.10;;
11998;SDS011;40817;51.520;9.954;2022-07-25T08:20:17;7.22;;;6.53;;
11998;SDS011;40817;51.520;9.954;2022-07-25T08:22:49;9.73;;;7.05;;
11998;SDS011;40817;51.520;9.954;2022-07-25T08:25:18;7.45;;;6.68;;
11998;SDS011;40817;51.520;9.954;2022-07-25T08:27:47;7.28;;;6.47;;
11998;SDS011;40817;51.520;9.954;2022-07-25T08:30:15;8.13;;;6.07;;
11998;SDS011;40817;51.520;9.954;2022-07-25T08:32:47;6.97;;;6.28;;
11998;SDS011;40817;51.520;9.954;2022-07-25T08:35:17;9.10;;;6.38;;
11998;SDS011;40817;51.520;9.954;2022-07-25T08:37:47;7.25;;;6.50;;
11998;SDS011;40817;51.520;9.954;2022-07-25T08:40:18;7.90;;;6.55;;
11998;SDS011;40817;51.520;9.954;2022-07-25T08:42:48;7.68;;;6.88;;
11998;SDS011;40817;51.520;9.954;2022-07-25T08:45:17;8.07;;;6.90;;
11998;SDS011;40817;51.520;9.954;2022-07-25T08:47:45;7.35;;;5.75;;
11998;SDS011;40817;51.520;9.954;2022-07-25T08:50:16;7.40;;;6.45;;
11998;SDS011;40817;51.520;9.954;2022-07-25T08:52:47;7.38;;;6.45;;
11998;SDS011;40817;51.520;9.954;2022-07-25T08:55:18;9.35;;;6.63;;
11998;SDS011;40817;51.520;9.954;2022-07-25T08:57:50;7.90;;;6.50;;
11998;SDS011;40817;51.520;9.954;2022-07-25T09:00:20;7.72;;;6.78;;
11998;SDS011;40817;51.520;9.954;2022-07-25T09:02:51;9.50;;;7.10;;
11998;SDS011;40817;51.520;9.954;2022-07-25T09:05:21;8.32;;;7.18;;
11998;SDS011;40817;51.520;9.954;2022-07-25T09:07:52;8.93;;;6.82;;
11998;SDS011;40817;51.520;9.954;2022-07-25T09:10:21;7.15;;;6.45;;
11998;SDS011;40817;51.520;9.954;2022-07-25T09:12:52;10.30;;;6.20;;
11998;SDS011;40817;51.520;9.954;2022-07-25T09:15:24;10.45;;;6.90;;
11998;SDS011;40817;51.520;9.954;2022-07-25T09:17:55;7.95;;;7.15;;
11998;SDS011;40817;51.520;9.954;2022-07-25T09:20:34;9.25;;;7.07;;
11998;SDS011;40817;51.520;9.954;2022-07-25T09:23:07;8.85;;;6.60;;
11998;SDS011;40817;51.520;9.954;2022-07-25T09:25:35;7.28;;;6.55;;
11998;SDS011;40817;51.520;9.954;2022-07-25T09:28:09;8.52;;;7.00;;
11998;SDS011;40817;51.520;9.954;2022-07-25T09:30:40;8.20;;;6.65;;
11998;SDS011;40817;51.520;9.954;2022-07-25T09:33:20;8.05;;;6.88;;
11998;SDS011;40817;51.520;9.954;2022-07-25T09:35:49;7.15;;;6.45;;
11998;SDS011;40817;51.520;9.954;2022-07-25T09:38:19;8.63;;;6.95;;
11998;SDS011;40817;51.520;9.954;2022-07-25T09:40:53;7.90;;;6.55;;
11998;SDS011;40817;51.520;9.954;2022-07-25T09:43:22;7.75;;;6.95;;
11998;SDS011;40817;51.520;9.954;2022-07-25T09:46:02;8.40;;;6.88;;
11998;SDS011;40817;51.520;9.954;2022-07-25T09:48:30;7.32;;;6.63;;
11998;SDS011;40817;51.520;9.954;2022-07-25T09:50:58;7.68;;;6.63;;
11998;SDS011;40817;51.520;9.954;2022-07-25T09:53:28;8.77;;;6.85;;
11998;SDS011;40817;51.520;9.954;2022-07-25T09:55:57;8.65;;;6.50;;
11998;SDS011;40817;51.520;9.954;2022-07-25T09:58:26;8.63;;;7.07;;
11998;SDS011;40817;51.520;9.954;2022-07-25T10:00:56;8.23;;;7.18;;
11998;SDS011;40817;51.520;9.954;2022-07-25T10:03:32;7.50;;;6.70;;
11998;SDS011;40817;51.520;9.954;2022-07-25T10:06:17;7.05;;;6.30;;
11998;SDS011;40817;51.520;9.954;2022-07-25T10:08:55;6.90;;;6.20;;
11998;SDS011;40817;51.520;9.954;2022-07-25T10:11:25;8.23;;;6.43;;
11998;SDS011;40817;51.520;9.954;2022-07-25T10:13:54;6.30;;;5.57;;
11998;SDS011;40817;51.520;9.954;2022-07-25T10:16:23;8.88;;;6.32;;
11998;SDS011;40817;51.520;9.954;2022-07-25T10:18:53;6.10;;;5.05;;
11998;SDS011;40817;51.520;9.954;2022-07-25T10:21:24;5.93;;;5.35;;
11998;SDS011;40817;51.520;9.954;2022-07-25T10:23:59;5.63;;;4.57;;
11998;SDS011;40817;51.520;9.954;2022-07-25T10:26:29;6.10;;;5.47;;
11998;SDS011;40817;51.520;9.954;2022-07-25T10:28:58;5.72;;;5.13;;
11998;SDS011;40817;51.520;9.954;2022-07-25T10:31:33;6.40;;;5.35;;
11998;SDS011;40817;51.520;9.954;2022-07-25T10:34:04;6.55;;;5.22;;
11998;SDS011;40817;51.520;9.954;2022-07-25T10:36:42;6.05;;;5.30;;
11998;SDS011;40817;51.520;9.954;2022-07-25T10:39:14;5.45;;;4.50;;
11998;SDS011;40817;51.520;9.954;2022-07-25T10:41:48;5.88;;;4.57;;
11998;SDS011;40817;51.520;9.954;2022-07-25T10:44:19;6.35;;;4.15;;
11998;SDS011;40817;51.520;9.954;2022-07-25T10:46:47;5.95;;;4.45;;
11998;SDS011;40817;51.520;9.954;2022-07-25T10:49:16;6.50;;;4.63;;
11998;SDS011;40817;51.520;9.954;2022-07-25T10:51:54;7.97;;;4.57;;
11998;SDS011;40817;51.520;9.954;2022-07-25T10:54:30;5.55;;;4.93;;
11998;SDS011;40817;51.520;9.954;2022-07-25T10:57:00;6.68;;;5.35;;
11998;SDS011;40817;51.520;9.954;2022-07-25T10:59:31;8.82;;;5.28;;
11998;SDS011;40817;51.520;9.954;2022-07-25T11:02:01;6.53;;;5.00;;
11998;SDS011;40817;51.520;9.954;2022-07-25T11:04:34;6.85;;;5.65;;
11998;SDS011;40817;51.520;9.954;2022-07-25T11:07:08;7.03;;;5.10;;
11998;SDS011;40817;51.520;9.954;2022-07-25T11:09:40;7.78;;;4.97;;
11998;SDS011;40817;51.520;9.954;2022-07-25T11:12:13;5.60;;;5.00;;
11998;SDS011;40817;51.520;9.954;2022-07-25T11:14:41;5.80;;;4.65;;
11998;SDS011;40817;51.520;9.954;2022-07-25T11:17:10;7.70;;;4.53;;
11998;SDS011;40817;51.520;9.954;2022-07-25T11:19:40;5.80;;;4.60;;
11998;SDS011;40817;51.520;9.954;2022-07-25T11:22:09;7.28;;;4.82;;
11998;SDS011;40817;51.520;9.954;2022-07-25T11:24:38;5.53;;;4.93;;
11998;SDS011;40817;51.520;9.954;2022-07-25T11:27:10;7.28;;;4.70;;
11998;SDS011;40817;51.520;9.954;2022-07-25T11:29:48;5.43;;;4.65;;
11998;SDS011;40817;51.520;9.954;2022-07-25T11:32:16;6.75;;;4.70;;
11998;SDS011;40817;51.520;9.954;2022-07-25T11:34:45;6.95;;;4.90;;
11998;SDS011;40817;51.520;9.954;2022-07-25T11:37:18;5.20;;;4.30;;
11998;SDS011;40817;51.520;9.954;2022-07-25T11:39:48;5.75;;;4.55;;
11998;SDS011;40817;51.520;9.954;2022-07-25T11:42:17;5.15;;;4.65;;
11998;SDS011;40817;51.520;9.954;2022-07-25T11:44:47;5.50;;;4.57;;
11998;SDS011;40817;51.520;9.954;2022-07-25T11:47:21;5.78;;;4.60;;
11998;SDS011;40817;51.520;9.954;2022-07-25T11:52:23;7.30;;;5.10;;
11998;SDS011;40817;51.520;9.954;2022-07-25T11:54:58;5.07;;;4.30;;
11998;SDS011;40817;51.520;9.954;2022-07-25T11:57:29;5.25;;;4.40;;
11998;SDS011;40817;51.520;9.954;2022-07-25T11:59:59;6.00;;;4.55;;
11998;SDS011;40817;51.520;9.954;2022-07-25T12:02:30;7.25;;;4.90;;
11998;SDS011;40817;51.520;9.954;2022-07-25T12:05:02;4.82;;;4.43;;
11998;SDS011;40817;51.520;9.954;2022-07-25T12:07:39;5.13;;;4.70;;
11998;SDS011;40817;51.520;9.954;2022-07-25T12:10:14;5.85;;;5.03;;
11998;SDS011;40817;51.520;9.954;2022-07-25T12:12:49;7.10;;;4.60;;
11998;SDS011;40817;51.520;9.954;2022-07-25T12:15:21;6.15;;;5.07;;
11998;SDS011;40817;51.520;9.954;2022-07-25T12:17:53;5.35;;;4.72;;
11998;SDS011;40817;51.520;9.954;2022-07-25T12:20:23;6.15;;;4.97;;
11998;SDS011;40817;51.520;9.954;2022-07-25T12:22:54;5.75;;;5.00;;
11998;SDS011;40817;51.520;9.954;2022-07-25T12:25:27;5.85;;;5.28;;
11998;SDS011;40817;51.520;9.954;2022-07-25T12:27:55;6.20;;;4.80;;
11998;SDS011;40817;51.520;9.954;2022-07-25T12:30:24;6.13;;;4.70;;
11998;SDS011;40817;51.520;9.954;2022-07-25T12:32:52;7.70;;;5.00;;
11998;SDS011;40817;51.520;9.954;2022-07-25T12:35:21;5.30;;;4.80;;
11998;SDS011;40817;51.520;9.954;2022-07-25T12:37:49;6.63;;;4.85;;
11998;SDS011;40817;51.520;9.954;2022-07-25T12:40:18;5.95;;;5.00;;
11998;SDS011;40817;51.520;9.954;2022-07-25T12:42:48;5.53;;;4.95;;
11998;SDS011;40817;51.520;9.954;2022-07-25T12:45:25;10.52;;;5.28;;
11998;SDS011;40817;51.520;9.954;2022-07-25T12:47:53;5.90;;;4.80;;
11998;SDS011;40817;51.520;9.954;2022-07-25T12:50:21;6.53;;;5.10;;
11998;SDS011;40817;51.520;9.954;2022-07-25T12:52:50;5.53;;;4.43;;
11998;SDS011;40817;51.520;9.954;2022-07-25T12:55:18;7.13;;;4.75;;
11998;SDS011;40817;51.520;9.954;2022-07-25T12:57:48;6.65;;;4.90;;
11998;SDS011;40817;51.520;9.954;2022-07-25T13:00:16;6.78;;;4.70;;
11998;SDS011;40817;51.520;9.954;2022-07-25T13:02:49;5.75;;;5.15;;
11998;SDS011;40817;51.520;9.954;2022-07-25T13:05:20;6.68;;;5.05;;
11998;SDS011;40817;51.520;9.954;2022-07-25T13:07:48;5.10;;;4.60;;
11998;SDS011;40817;51.520;9.954;2022-07-25T13:10:16;6.70;;;5.03;;
11998;SDS011;40817;51.520;9.954;2022-07-25T13:12:45;5.97;;;5.07;;
11998;SDS011;40817;51.520;9.954;2022-07-25T13:15:13;5.97;;;4.97;;
11998;SDS011;40817;51.520;9.954;2022-07-25T13:17:44;7.38;;;5.15;;
11998;SDS011;40817;51.520;9.954;2022-07-25T13:20:13;8.20;;;5.90;;
11998;SDS011;40817;51.520;9.954;2022-07-25T13:22:41;6.85;;;4.90;;
11998;SDS011;40817;51.520;9.954;2022-07-25T13:25:09;6.07;;;5.40;;
11998;SDS011;40817;51.520;9.954;2022-07-25T13:27:36;5.30;;;4.80;;
11998;SDS011;40817;51.520;9.954;2022-07-25T13:30:05;16.30;;;5.68;;
11998;SDS011;40817;51.520;9.954;2022-07-25T13:32:34;10.80;;;4.97;;
11998;SDS011;40817;51.520;9.954;2022-07-25T13:35:02;9.13;;;4.55;;
11998;SDS011;40817;51.520;9.954;2022-07-25T13:37:32;10.98;;;4.75;;
11998;SDS011;40817;51.520;9.954;2022-07-25T13:40:00;7.85;;;4.88;;
11998;SDS011;40817;51.520;9.954;2022-07-25T13:42:28;7.95;;;4.65;;
11998;SDS011;40817;51.520;9.954;2022-07-25T13:44:56;9.27;;;5.45;;
11998;SDS011;40817;51.520;9.954;2022-07-25T13:47:23;7.18;;;4.72;;
11998;SDS011;40817;51.520;9.954;2022-07-25T13:49:51;9.55;;;5.40;;
11998;SDS011;40817;51.520;9.954;2022-07-25T13:52:19;9.40;;;5.00;;
11998;SDS011;40817;51.520;9.954;2022-07-25T13:54:48;7.90;;;5.25;;
11998;SDS011;40817;51.520;9.954;2022-07-25T13:57:15;8.52;;;5.05;;
11998;SDS011;40817;51.520;9.954;2022-07-25T13:59:44;5.00;;;4.32;;
11998;SDS011;40817;51.520;9.954;2022-07-25T14:02:11;5.72;;;4.90;;
11998;SDS011;40817;51.520;9.954;2022-07-25T14:04:39;6.78;;;4.78;;
11998;SDS011;40817;51.520;9.954;2022-07-25T14:07:06;5.55;;;4.13;;
11998;SDS011;40817;51.520;9.954;2022-07-25T14:09:34;5.88;;;5.00;;
11998;SDS011;40817;51.520;9.954;2022-07-25T14:12:03;6.13;;;4.60;;
11998;SDS011;40817;51.520;9.954;2022-07-25T14:14:31;7.07;;;4.53;;
11998;SDS011;40817;51.520;9.954;2022-07-25T14:16:59;8.27;;;4.43;;
11998;SDS011;40817;51.520;9.954;2022-07-25T14:19:27;7.78;;;3.83;;
11998;SDS011;40817;51.520;9.954;2022-07-25T14:21:55;6.22;;;3.78;;
11998;SDS011;40817;51.520;9.954;2022-07-25T14:24:22;6.18;;;3.70;;
11998;SDS011;40817;51.520;9.954;2022-07-25T14:26:50;7.45;;;3.97;;
11998;SDS011;40817;51.520;9.954;2022-07-25T14:29:19;5.88;;;4.47;;
11998;SDS011;40817;51.520;9.954;2022-07-25T14:31:47;5.22;;;3.83;;
11998;SDS011;40817;51.520;9.954;2022-07-25T14:34:14;7.28;;;4.00;;
11998;SDS011;40817;51.520;9.954;2022-07-25T14:36:42;6.32;;;3.80;;
11998;SDS011;40817;51.520;9.954;2022-07-25T14:39:12;9.13;;;3.95;;
11998;SDS011;40817;51.520;9.954;2022-07-25T14:41:40;7.50;;;3.70;;
11998;SDS011;40817;51.520;9.954;2022-07-25T14:44:08;6.57;;;4.43;;
11998;SDS011;40817;51.520;9.954;2022-07-25T14:46:37;7.40;;;4.43;;
11998;SDS011;40817;51.520;9.954;2022-07-25T14:49:05;8.80;;;4.75;;
11998;SDS011;40817;51.520;9.954;2022-07-25T14:51:33;7.43;;;4.55;;
11998;SDS011;40817;51.520;9.954;2022-07-25T14:54:00;6.28;;;4.38;;
11998;SDS011;40817;51.520;9.954;2022-07-25T14:56:28;6.43;;;4.60;;
11998;SDS011;40817;51.520;9.954;2022-07-25T14:58:56;8.00;;;4.32;;
11998;SDS011;40817;51.520;9.954;2022-07-25T15:01:24;6.28;;;4.82;;
11998;SDS011;40817;51.520;9.954;2022-07-25T15:03:53;6.78;;;4.60;;